sensor_id;sensor_type;location;lat;lon;timestamp;pressure;altitude;pressure_sealevel;temperature;humidity
51083;BME280;37131;42.694;23.350;2023-05-09T00:01:53;95766.56;;;11.30;100.00
51083;BME280;37131;42.694;23.350;2023-05-09T00:04:18;95766.13;;;11.33;100.00
51083;BME280;37131;42.694;23.350;2023-05-09T00:06:44;95764.38;;;11.27;100.00
51083;BME280;37131;42.694;23.350;2023-05-09T00:09:09;95762.13;;;11.31;100.00
51083;BME280;37131;42.694;23.350;2023-05-09T00:11:35;95767.56;;;11.29;100.00
51083;BME280;37131;42.694;23.350;2023-05-09T00:14:00;95762.28;;;11.36;100.00
51083;BME280;37131;42.694;23.350;2023-05-09T00:16:26;95762.41;;;11.41;100.00
51083;BME280;37131;42.694;23.350;2023-05-09T00:18:52;95764.41;;;11.46;100.00
51083;BME280;37131;42.694;23.350;2023-05-09T00:21:18;95769.19;;;11.49;100.00
51083;BME280;37131;42.694;23.350;2023-05-09T00:23:43;95764.41;;;11.46;100.00
51083;BME280;37131;42.694;23.350;2023-05-09T00:26:08;95759.19;;;11.46;100.00
51083;BME280;37131;42.694;23.350;2023-05-09T00:28:33;95750.63;;;11.57;100.00
51083;BME280;37131;42.694;23.350;2023-05-09T00:30:59;95749.59;;;11.58;100.00
51083;BME280;37131;42.694;23.350;2023-05-09T00:33:24;95751.78;;;11.61;100.00
51083;BME280;37131;42.694;23.350;2023-05-09T00:35:51;95749.97;;;11.62;100.00
51083;BME280;37131;42.694;23.350;2023-05-09T00:38:16;95753.38;;;11.62;100.00
51083;BME280;37131;42.694;23.350;2023-05-09T00:40:42;95754.44;;;11.54;100.00
51083;BME280;37131;42.694;23.350;2023-05-09T00:43:07;95756.34;;;11.47;100.00
51083;BME280;37131;42.694;23.350;2023-05-09T00:45:32;95752.28;;;11.51;100.00
51083;BME280;37131;42.694;23.350;2023-05-09T00:47:58;95755.19;;;11.43;100.00
51083;BME280;37131;42.694;23.350;2023-05-09T00:50:23;95746.34;;;11.44;100.00
51083;BME280;37131;42.694;23.350;2023-05-09T00:52:49;95747.72;;;11.47;100.00
51083;BME280;37131;42.694;23.350;2023-05-09T00:55:14;95748.38;;;11.42;100.00
51083;BME280;37131;42.694;23.350;2023-05-09T00:57:40;95748.78;;;11.39;100.00
51083;BME280;37131;42.694;23.350;2023-05-09T01:00:05;95744.66;;;11.31;100.00
51083;BME280;37131;42.694;23.350;2023-05-09T01:02:31;95747.63;;;11.35;100.00
51083;BME280;37131;42.694;23.350;2023-05-09T01:04:56;95748.06;;;11.32;100.00
51083;BME280;37131;42.694;23.350;2023-05-09T01:10:01;95747.41;;;11.36;100.00
51083;BME280;37131;42.694;23.350;2023-05-09T01:15:11;95747.66;;;11.53;100.00
51083;BME280;37131;42.694;23.350;2023-05-09T01:20:19;95745.56;;;11.62;100.00
51083;BME280;37131;42.694;23.350;2023-05-09T01:22:51;95742.94;;;11.62;100.00
51083;BME280;37131;42.694;23.350;2023-05-09T01:27:50;95739.50;;;11.80;100.00
51083;BME280;37131;42.694;23.350;2023-05-09T01:30:17;95750.69;;;11.69;100.00
51083;BME280;37131;42.694;23.350;2023-05-09T01:32:43;95750.41;;;11.77;100.00
51083;BME280;37131;42.694;23.350;2023-05-09T01:35:12;95744.88;;;11.85;100.00
51083;BME280;37131;42.694;23.350;2023-05-09T01:37:38;95748.06;;;11.87;100.00
51083;BME280;37131;42.694;23.350;2023-05-09T01:40:12;95748.88;;;11.88;100.00
51083;BME280;37131;42.694;23.350;2023-05-09T01:42:40;95741.91;;;11.82;100.00
51083;BME280;37131;42.694;23.350;2023-05-09T01:45:06;95745.53;;;11.81;100.00
51083;BME280;37131;42.694;23.350;2023-05-09T01:47:32;95753.31;;;11.69;100.00
51083;BME280;37131;42.694;23.350;2023-05-09T01:49:58;95754.47;;;11.73;100.00
51083;BME280;37131;42.694;23.350;2023-05-09T01:52:25;95759.91;;;11.71;100.00
51083;BME280;37131;42.694;23.350;2023-05-09T01:54:51;95765.63;;;11.80;100.00
51083;BME280;37131;42.694;23.350;2023-05-09T01:57:16;95757.81;;;11.80;100.00
51083;BME280;37131;42.694;23.350;2023-05-09T01:59:43;95762.91;;;11.93;100.00
51083;BME280;37131;42.694;23.350;2023-05-09T02:02:08;95761.13;;;11.87;100.00
51083;BME280;37131;42.694;23.350;2023-05-09T02:04:34;95764.97;;;11.85;100.00
51083;BME280;37131;42.694;23.350;2023-05-09T02:07:00;95745.53;;;11.81;100.00
51083;BME280;37131;42.694;23.350;2023-05-09T02:09:26;95756.41;;;11.77;100.00
51083;BME280;37131;42.694;23.350;2023-05-09T02:11:52;95760.34;;;11.68;100.00
51083;BME280;37131;42.694;23.350;2023-05-09T02:14:17;95754.13;;;11.69;100.00
51083;BME280;37131;42.694;23.350;2023-05-09T02:16:43;95754.97;;;11.63;100.00
51083;BME280;37131;42.694;23.350;2023-05-09T02:19:08;95758.00;;;11.60;100.00
51083;BME280;37131;42.694;23.350;2023-05-09T02:21:33;95759.63;;;11.61;100.00
51083;BME280;37131;42.694;23.350;2023-05-09T02:23:59;95750.91;;;11.49;100.00
51083;BME280;37131;42.694;23.350;2023-05-09T02:26:24;95749.16;;;11.43;100.00
51083;BME280;37131;42.694;23.350;2023-05-09T02:28:50;95749.38;;;11.41;100.00
51083;BME280;37131;42.694;23.350;2023-05-09T02:31:16;95753.38;;;11.44;100.00
51083;BME280;37131;42.694;23.350;2023-05-09T02:33:43;95756.13;;;11.49;100.00
51083;BME280;37131;42.694;23.350;2023-05-09T02:36:08;95763.31;;;11.53;100.00
51083;BME280;37131;42.694;23.350;2023-05-09T02:38:34;95758.53;;;11.50;100.00
51083;BME280;37131;42.694;23.350;2023-05-09T02:41:00;95760.84;;;11.58;100.00
51083;BME280;37131;42.694;23.350;2023-05-09T02:43:25;95758.44;;;11.57;100.00
51083;BME280;37131;42.694;23.350;2023-05-09T02:45:50;95758.88;;;11.54;100.00
51083;BME280;37131;42.694;23.350;2023-05-09T02:48:16;95760.06;;;11.58;100.00
51083;BME280;37131;42.694;23.350;2023-05-09T02:50:41;95756.66;;;11.57;100.00
51083;BME280;37131;42.694;23.350;2023-05-09T02:53:10;95758.53;;;11.50;100.00
51083;BME280;37131;42.694;23.350;2023-05-09T02:55:35;95756.19;;;11.42;100.00
51083;BME280;37131;42.694;23.350;2023-05-09T02:58:00;95756.78;;;11.44;100.00
51083;BME280;37131;42.694;23.350;2023-05-09T03:00:25;95761.50;;;11.35;100.00
51083;BME280;37131;42.694;23.350;2023-05-09T03:02:51;95759.47;;;11.37;100.00
51083;BME280;37131;42.694;23.350;2023-05-09T03:05:16;95762.97;;;11.24;100.00
51083;BME280;37131;42.694;23.350;2023-05-09T03:07:42;95765.38;;;11.26;100.00
51083;BME280;37131;42.694;23.350;2023-05-09T03:10:08;95767.63;;;11.22;100.00
51083;BME280;37131;42.694;23.350;2023-05-09T03:12:36;95774.03;;;11.27;100.00
51083;BME280;37131;42.694;23.350;2023-05-09T03:15:02;95778.00;;;11.29;100.00
51083;BME280;37131;42.694;23.350;2023-05-09T03:17:28;95783.28;;;11.22;100.00
51083;BME280;37131;42.694;23.350;2023-05-09T03:19:53;95788.13;;;11.19;100.00
51083;BME280;37131;42.694;23.350;2023-05-09T03:22:18;95754.72;;;10.84;100.00
51083;BME280;37131;42.694;23.350;2023-05-09T03:24:43;95801.56;;;10.97;100.00
51083;BME280;37131;42.694;23.350;2023-05-09T03:27:09;95804.97;;;10.98;100.00
51083;BME280;37131;42.694;23.350;2023-05-09T03:29:34;95802.75;;;11.01;100.00
51083;BME280;37131;42.694;23.350;2023-05-09T03:31:59;95803.31;;;11.03;100.00
51083;BME280;37131;42.694;23.350;2023-05-09T03:34:24;95800.94;;;11.02;100.00
51083;BME280;37131;42.694;23.350;2023-05-09T03:36:50;95811.56;;;11.00;100.00
51083;BME280;37131;42.694;23.350;2023-05-09T03:39:15;95811.38;;;11.02;100.00
51083;BME280;37131;42.694;23.350;2023-05-09T03:41:40;95816.00;;;11.00;100.00
51083;BME280;37131;42.694;23.350;2023-05-09T03:44:07;95810.59;;;10.95;100.00
51083;BME280;37131;42.694;23.350;2023-05-09T03:46:32;95812.78;;;10.98;100.00
51083;BME280;37131;42.694;23.350;2023-05-09T03:48:58;95811.25;;;10.90;100.00
51083;BME280;37131;42.694;23.350;2023-05-09T03:51:23;95807.56;;;10.73;100.00
51083;BME280;37131;42.694;23.350;2023-05-09T03:53:48;95805.13;;;10.78;100.00
51083;BME280;37131;42.694;23.350;2023-05-09T03:56:14;95806.03;;;10.90;100.00
51083;BME280;37131;42.694;23.350;2023-05-09T03:58:39;95810.19;;;10.98;100.00
51083;BME280;37131;42.694;23.350;2023-05-09T04:01:04;95806.56;;;10.99;100.00
51083;BME280;37131;42.694;23.350;2023-05-09T04:03:29;95808.13;;;11.06;100.00
51083;BME280;37131;42.694;23.350;2023-05-09T04:05:55;95814.28;;;11.12;100.00
51083;BME280;37131;42.694;23.350;2023-05-09T04:08:21;95809.41;;;11.22;100.00
51083;BME280;37131;42.694;23.350;2023-05-09T04:10:47;95817.53;;;11.08;100.00
51083;BME280;37131;42.694;23.350;2023-05-09T04:13:13;95819.09;;;11.15;100.00
51083;BME280;37131;42.694;23.350;2023-05-09T04:15:38;95814.13;;;11.32;100.00
51083;BME280;37131;42.694;23.350;2023-05-09T04:18:03;95823.06;;;11.43;100.00
51083;BME280;37131;42.694;23.350;2023-05-09T04:20:29;95819.88;;;11.41;100.00
51083;BME280;37131;42.694;23.350;2023-05-09T04:22:55;95818.50;;;11.38;100.00
51083;BME280;37131;42.694;23.350;2023-05-09T04:25:20;95824.84;;;11.24;100.00
51083;BME280;37131;42.694;23.350;2023-05-09T04:27:46;95833.53;;;11.18;100.00
51083;BME280;37131;42.694;23.350;2023-05-09T04:30:11;95821.91;;;11.14;100.00
51083;BME280;37131;42.694;23.350;2023-05-09T04:32:37;95826.13;;;11.15;100.00
51083;BME280;37131;42.694;23.350;2023-05-09T04:35:03;95821.38;;;11.30;100.00
51083;BME280;37131;42.694;23.350;2023-05-09T04:37:28;95825.31;;;11.14;100.00
51083;BME280;37131;42.694;23.350;2023-05-09T04:39:55;95819.56;;;11.05;100.00
51083;BME280;37131;42.694;23.350;2023-05-09T04:42:20;95831.03;;;11.04;100.00
51083;BME280;37131;42.694;23.350;2023-05-09T04:44:45;95826.81;;;11.03;100.00
51083;BME280;37131;42.694;23.350;2023-05-09T04:47:11;95828.75;;;11.15;100.00
51083;BME280;37131;42.694;23.350;2023-05-09T04:49:36;95824.41;;;11.02;100.00
51083;BME280;37131;42.694;23.350;2023-05-09T04:52:02;95830.47;;;10.96;100.00
51083;BME280;37131;42.694;23.350;2023-05-09T04:54:27;95828.94;;;11.13;100.00
51083;BME280;37131;42.694;23.350;2023-05-09T04:56:52;95826.59;;;11.05;100.00
51083;BME280;37131;42.694;23.350;2023-05-09T04:59:18;95822.50;;;11.16;100.00
51083;BME280;37131;42.694;23.350;2023-05-09T05:01:43;95823.84;;;11.25;100.00
51083;BME280;37131;42.694;23.350;2023-05-09T05:04:08;95826.75;;;11.35;100.00
51083;BME280;37131;42.694;23.350;2023-05-09T05:06:34;95828.41;;;11.30;100.00
51083;BME280;37131;42.694;23.350;2023-05-09T05:08:59;95825.38;;;11.33;100.00
51083;BME280;37131;42.694;23.350;2023-05-09T05:11:24;95822.72;;;11.58;100.00
51083;BME280;37131;42.694;23.350;2023-05-09T05:13:50;95822.34;;;11.54;100.00
51083;BME280;37131;42.694;23.350;2023-05-09T05:16:15;95822.56;;;11.53;100.00
51083;BME280;37131;42.694;23.350;2023-05-09T05:18:40;95821.88;;;11.64;100.00
51083;BME280;37131;42.694;23.350;2023-05-09T05:21:06;95818.91;;;11.79;100.00
51083;BME280;37131;42.694;23.350;2023-05-09T05:23:31;95812.28;;;11.76;100.00
51083;BME280;37131;42.694;23.350;2023-05-09T05:25:56;95818.81;;;11.67;100.00
51083;BME280;37131;42.694;23.350;2023-05-09T05:28:22;95823.13;;;11.80;100.00
51083;BME280;37131;42.694;23.350;2023-05-09T05:30:47;95834.31;;;11.87;100.00
51083;BME280;37131;42.694;23.350;2023-05-09T05:33:12;95828.84;;;11.89;100.00
51083;BME280;37131;42.694;23.350;2023-05-09T05:35:38;95825.97;;;11.97;100.00
51083;BME280;37131;42.694;23.350;2023-05-09T05:38:03;95832.38;;;12.20;100.00
51083;BME280;37131;42.694;23.350;2023-05-09T05:40:28;95836.59;;;12.33;100.00
51083;BME280;37131;42.694;23.350;2023-05-09T05:42:53;95829.09;;;12.24;98.42
51083;BME280;37131;42.694;23.350;2023-05-09T05:45:19;95827.81;;;12.45;96.22
51083;BME280;37131;42.694;23.350;2023-05-09T05:47:44;95830.44;;;12.45;96.84
51083;BME280;37131;42.694;23.350;2023-05-09T05:50:09;95832.91;;;12.71;96.96
51083;BME280;37131;42.694;23.350;2023-05-09T05:52:38;95831.91;;;12.72;97.12
51083;BME280;37131;42.694;23.350;2023-05-09T05:55:04;95832.22;;;12.75;94.52
51083;BME280;37131;42.694;23.350;2023-05-09T05:57:29;95833.66;;;12.90;93.85
51083;BME280;37131;42.694;23.350;2023-05-09T05:59:55;95830.13;;;12.96;91.14
51083;BME280;37131;42.694;23.350;2023-05-09T06:02:20;95824.34;;;13.06;91.68
51083;BME280;37131;42.694;23.350;2023-05-09T06:04:45;95833.84;;;13.19;88.08
51083;BME280;37131;42.694;23.350;2023-05-09T06:07:10;95799.16;;;12.81;87.38
51083;BME280;37131;42.694;23.350;2023-05-09T06:09:36;95836.97;;;12.97;87.72
51083;BME280;37131;42.694;23.350;2023-05-09T06:12:02;95829.91;;;13.09;89.36
51083;BME280;37131;42.694;23.350;2023-05-09T06:14:27;95838.47;;;13.05;87.77
51083;BME280;37131;42.694;23.350;2023-05-09T06:16:52;95846.34;;;12.74;87.40
51083;BME280;37131;42.694;23.350;2023-05-09T06:19:18;95841.91;;;12.75;87.76
51083;BME280;37131;42.694;23.350;2023-05-09T06:21:43;95833.47;;;12.42;88.52
51083;BME280;37131;42.694;23.350;2023-05-09T06:24:08;95836.25;;;12.48;89.28
51083;BME280;37131;42.694;23.350;2023-05-09T06:26:34;95829.50;;;12.40;90.79
51083;BME280;37131;42.694;23.350;2023-05-09T06:28:59;95835.88;;;12.44;90.09
51083;BME280;37131;42.694;23.350;2023-05-09T06:31:24;95833.19;;;12.51;91.83
51083;BME280;37131;42.694;23.350;2023-05-09T06:33:50;95834.16;;;12.68;90.16
51083;BME280;37131;42.694;23.350;2023-05-09T06:36:15;95844.38;;;12.58;88.68
51083;BME280;37131;42.694;23.350;2023-05-09T06:38:40;95834.19;;;12.50;88.59
51083;BME280;37131;42.694;23.350;2023-05-09T06:41:05;95835.47;;;12.59;88.54
51083;BME280;37131;42.694;23.350;2023-05-09T06:43:31;95831.09;;;12.71;88.19
51083;BME280;37131;42.694;23.350;2023-05-09T06:45:56;95831.84;;;12.60;86.75
51083;BME280;37131;42.694;23.350;2023-05-09T06:48:21;95832.69;;;12.72;87.43
51083;BME280;37131;42.694;23.350;2023-05-09T06:50:48;95832.00;;;12.77;85.99
51083;BME280;37131;42.694;23.350;2023-05-09T06:53:13;95832.91;;;12.71;87.04
51083;BME280;37131;42.694;23.350;2023-05-09T06:55:39;95834.81;;;12.63;87.22
51083;BME280;37131;42.694;23.350;2023-05-09T06:58:04;95832.69;;;12.72;87.88
51083;BME280;37131;42.694;23.350;2023-05-09T07:00:29;95841.38;;;12.85;87.63
51083;BME280;37131;42.694;23.350;2023-05-09T07:02:55;95834.63;;;12.77;87.65
51083;BME280;37131;42.694;23.350;2023-05-09T07:05:20;95841.59;;;12.53;86.93
51083;BME280;37131;42.694;23.350;2023-05-09T07:07:45;95823.97;;;12.48;87.67
51083;BME280;37131;42.694;23.350;2023-05-09T07:10:10;95833.53;;;12.54;87.11
51083;BME280;37131;42.694;23.350;2023-05-09T07:12:36;95831.63;;;12.61;86.78
51083;BME280;37131;42.694;23.350;2023-05-09T07:15:01;95831.41;;;12.63;86.90
51083;BME280;37131;42.694;23.350;2023-05-09T07:17:26;95825.44;;;12.74;85.28
51083;BME280;37131;42.694;23.350;2023-05-09T07:19:54;95820.28;;;12.68;85.43
51083;BME280;37131;42.694;23.350;2023-05-09T07:22:20;95839.81;;;12.95;87.05
51083;BME280;37131;42.694;23.350;2023-05-09T07:24:45;95835.13;;;12.97;85.58
51083;BME280;37131;42.694;23.350;2023-05-09T07:27:11;95833.94;;;13.24;84.39
51083;BME280;37131;42.694;23.350;2023-05-09T07:29:36;95836.91;;;13.27;84.55
51083;BME280;37131;42.694;23.350;2023-05-09T07:32:01;95832.19;;;13.36;83.92
51083;BME280;37131;42.694;23.350;2023-05-09T07:34:26;95824.97;;;13.55;82.13
51083;BME280;37131;42.694;23.350;2023-05-09T07:36:52;95834.34;;;13.39;82.46
51083;BME280;37131;42.694;23.350;2023-05-09T07:39:17;95826.59;;;13.56;83.30
51083;BME280;37131;42.694;23.350;2023-05-09T07:41:42;95823.25;;;13.73;82.81
51083;BME280;37131;42.694;23.350;2023-05-09T07:44:07;95836.13;;;13.74;82.72
51083;BME280;37131;42.694;23.350;2023-05-09T07:46:36;95840.81;;;13.48;79.39
51083;BME280;37131;42.694;23.350;2023-05-09T07:49:02;95840.13;;;13.41;81.19
51083;BME280;37131;42.694;23.350;2023-05-09T07:51:28;95837.66;;;13.35;81.26
51083;BME280;37131;42.694;23.350;2023-05-09T07:53:53;95842.72;;;13.29;81.79
51083;BME280;37131;42.694;23.350;2023-05-09T07:56:20;95836.50;;;13.42;80.98
51083;BME280;37131;42.694;23.350;2023-05-09T07:58:46;95843.03;;;13.33;80.33
51083;BME280;37131;42.694;23.350;2023-05-09T08:01:12;95840.38;;;13.40;79.81
51083;BME280;37131;42.694;23.350;2023-05-09T08:03:37;95839.88;;;13.31;81.26
51083;BME280;37131;42.694;23.350;2023-05-09T08:06:02;95832.53;;;13.09;82.31
51083;BME280;37131;42.694;23.350;2023-05-09T08:08:28;95825.63;;;13.15;82.49
51083;BME280;37131;42.694;23.350;2023-05-09T08:10:53;95830.91;;;13.39;83.15
51083;BME280;37131;42.694;23.350;2023-05-09T08:13:19;95830.16;;;13.08;82.16
51083;BME280;37131;42.694;23.350;2023-05-09T08:15:46;95835.19;;;13.21;81.51
51083;BME280;37131;42.694;23.350;2023-05-09T08:18:11;95826.34;;;13.46;83.28
51083;BME280;37131;42.694;23.350;2023-05-09T08:20:36;95832.28;;;13.53;81.10
51083;BME280;37131;42.694;23.350;2023-05-09T08:23:01;95839.22;;;13.47;80.68
51083;BME280;37131;42.694;23.350;2023-05-09T08:25:27;95834.56;;;13.49;80.16
51083;BME280;37131;42.694;23.350;2023-05-09T08:27:53;95831.50;;;13.64;79.88
51083;BME280;37131;42.694;23.350;2023-05-09T08:30:18;95834.31;;;13.98;80.93
51083;BME280;37131;42.694;23.350;2023-05-09T08:32:44;95839.13;;;13.42;79.66
51083;BME280;37131;42.694;23.350;2023-05-09T08:35:09;95832.19;;;13.60;79.80
51083;BME280;37131;42.694;23.350;2023-05-09T08:37:35;95824.63;;;13.75;80.49
51083;BME280;37131;42.694;23.350;2023-05-09T08:40:00;95829.53;;;13.83;79.22
51083;BME280;37131;42.694;23.350;2023-05-09T08:42:25;95829.47;;;14.19;80.51
51083;BME280;37131;42.694;23.350;2023-05-09T08:44:51;95842.50;;;13.90;77.40
51083;BME280;37131;42.694;23.350;2023-05-09T08:47:16;95831.47;;;13.76;79.07
51083;BME280;37131;42.694;23.350;2023-05-09T08:49:42;95831.81;;;13.80;78.13
51083;BME280;37131;42.694;23.350;2023-05-09T08:52:08;95829.28;;;14.09;78.63
51083;BME280;37131;42.694;23.350;2023-05-09T08:54:33;95828.06;;;14.28;77.56
51083;BME280;37131;42.694;23.350;2023-05-09T08:56:59;95828.22;;;14.10;75.76
51083;BME280;37131;42.694;23.350;2023-05-09T08:59:24;95830.59;;;14.23;74.76
51083;BME280;37131;42.694;23.350;2023-05-09T09:01:50;95832.41;;;13.82;74.87
51083;BME280;37131;42.694;23.350;2023-05-09T09:04:17;95831.03;;;13.44;76.40
51083;BME280;37131;42.694;23.350;2023-05-09T09:06:42;95832.75;;;13.62;76.17
51083;BME280;37131;42.694;23.350;2023-05-09T09:09:08;95832.03;;;13.90;74.64
51083;BME280;37131;42.694;23.350;2023-05-09T09:11:34;95827.78;;;14.01;74.97
51083;BME280;37131;42.694;23.350;2023-05-09T09:14:01;95831.09;;;13.96;73.26
51083;BME280;37131;42.694;23.350;2023-05-09T09:16:30;95824.50;;;13.94;73.99
51083;BME280;37131;42.694;23.350;2023-05-09T09:18:56;95822.59;;;13.54;74.70
51083;BME280;37131;42.694;23.350;2023-05-09T09:21:22;95827.72;;;13.60;76.08
51083;BME280;37131;42.694;23.350;2023-05-09T09:23:48;95825.78;;;13.67;76.75
51083;BME280;37131;42.694;23.350;2023-05-09T09:26:13;95833.97;;;13.83;74.06
51083;BME280;37131;42.694;23.350;2023-05-09T09:28:39;95830.00;;;13.68;74.07
51083;BME280;37131;42.694;23.350;2023-05-09T09:33:44;95829.47;;;14.48;74.66
51083;BME280;37131;42.694;23.350;2023-05-09T09:36:10;95827.78;;;14.82;74.09
51083;BME280;37131;42.694;23.350;2023-05-09T09:38:38;95823.50;;;15.27;72.90
51083;BME280;37131;42.694;23.350;2023-05-09T09:41:04;95821.59;;;15.56;69.74
51083;BME280;37131;42.694;23.350;2023-05-09T09:43:29;95821.97;;;15.65;72.97
51083;BME280;37131;42.694;23.350;2023-05-09T09:45:55;95821.88;;;15.77;70.68
51083;BME280;37131;42.694;23.350;2023-05-09T09:48:25;95815.31;;;15.96;69.19
51083;BME280;37131;42.694;23.350;2023-05-09T09:50:52;95831.94;;;15.80;67.26
51083;BME280;37131;42.694;23.350;2023-05-09T09:53:18;95830.69;;;15.15;69.13
51083;BME280;37131;42.694;23.350;2023-05-09T09:55:52;95827.84;;;14.87;69.89
51083;BME280;37131;42.694;23.350;2023-05-09T09:58:18;95826.44;;;14.97;70.67
51083;BME280;37131;42.694;23.350;2023-05-09T10:01:02;95831.91;;;14.95;71.00
51083;BME280;37131;42.694;23.350;2023-05-09T10:03:33;95827.03;;;14.70;71.00
51083;BME280;37131;42.694;23.350;2023-05-09T10:06:02;95826.50;;;14.56;73.65
51083;BME280;37131;42.694;23.350;2023-05-09T10:08:27;95816.56;;;14.29;73.08
51083;BME280;37131;42.694;23.350;2023-05-09T10:10:52;95823.97;;;14.32;73.53
51083;BME280;37131;42.694;23.350;2023-05-09T10:13:17;95812.72;;;14.49;72.74
51083;BME280;37131;42.694;23.350;2023-05-09T10:15:43;95808.09;;;14.68;71.69
51083;BME280;37131;42.694;23.350;2023-05-09T10:18:08;95807.59;;;14.42;72.56
51083;BME280;37131;42.694;23.350;2023-05-09T10:20:34;95812.91;;;14.59;72.41
51083;BME280;37131;42.694;23.350;2023-05-09T10:23:03;95815.66;;;14.24;74.20
51083;BME280;37131;42.694;23.350;2023-05-09T10:28:01;95822.56;;;14.42;73.84
51083;BME280;37131;42.694;23.350;2023-05-09T10:30:34;95809.69;;;14.69;72.68
51083;BME280;37131;42.694;23.350;2023-05-09T10:33:03;95809.78;;;14.91;71.11
51083;BME280;37131;42.694;23.350;2023-05-09T10:35:32;95809.28;;;15.06;70.33
51083;BME280;37131;42.694;23.350;2023-05-09T10:38:00;95809.72;;;14.86;70.52
51083;BME280;37131;42.694;23.350;2023-05-09T10:40:26;95804.72;;;15.18;71.48
51083;BME280;37131;42.694;23.350;2023-05-09T10:42:51;95800.97;;;15.14;71.34
51083;BME280;37131;42.694;23.350;2023-05-09T10:45:17;95807.13;;;15.03;70.75
51083;BME280;37131;42.694;23.350;2023-05-09T10:47:43;95809.75;;;15.03;68.77
51083;BME280;37131;42.694;23.350;2023-05-09T10:50:11;95807.34;;;15.01;70.68
51083;BME280;37131;42.694;23.350;2023-05-09T10:55:21;95815.88;;;14.63;70.17
51083;BME280;37131;42.694;23.350;2023-05-09T10:57:51;95811.69;;;14.62;71.21
51083;BME280;37131;42.694;23.350;2023-05-09T11:00:17;95806.53;;;14.84;73.78
51083;BME280;37131;42.694;23.350;2023-05-09T11:03:06;95809.34;;;14.94;72.03
51083;BME280;37131;42.694;23.350;2023-05-09T11:05:37;95807.59;;;15.17;71.70
51083;BME280;37131;42.694;23.350;2023-05-09T11:10:46;95812.75;;;15.29;71.19
51083;BME280;37131;42.694;23.350;2023-05-09T11:13:12;95809.69;;;15.15;70.99
51083;BME280;37131;42.694;23.350;2023-05-09T11:18:25;95813.72;;;14.88;69.08
51083;BME280;37131;42.694;23.350;2023-05-09T11:20:51;95816.28;;;14.43;71.79
51083;BME280;37131;42.694;23.350;2023-05-09T11:23:19;95820.94;;;14.41;73.00
51083;BME280;37131;42.694;23.350;2023-05-09T11:25:46;95810.50;;;14.69;71.32
51083;BME280;37131;42.694;23.350;2023-05-09T11:28:24;95818.16;;;14.59;72.34
51083;BME280;37131;42.694;23.350;2023-05-09T11:30:50;95822.06;;;14.85;71.53
51083;BME280;37131;42.694;23.350;2023-05-09T11:33:27;95816.28;;;14.43;71.87
51083;BME280;37131;42.694;23.350;2023-05-09T11:38:41;95809.91;;;14.67;70.98
51083;BME280;37131;42.694;23.350;2023-05-09T11:41:07;95808.28;;;14.78;71.05
51083;BME280;37131;42.694;23.350;2023-05-09T11:43:32;95808.78;;;15.26;70.69
51083;BME280;37131;42.694;23.350;2023-05-09T11:45:59;95806.72;;;15.11;71.22
51083;BME280;37131;42.694;23.350;2023-05-09T11:48:24;95814.19;;;15.02;69.69
51083;BME280;37131;42.694;23.350;2023-05-09T11:50:49;95805.47;;;14.68;70.72
51083;BME280;37131;42.694;23.350;2023-05-09T11:53:14;95818.63;;;14.56;70.91
51083;BME280;37131;42.694;23.350;2023-05-09T11:55:40;95812.41;;;14.74;71.23
51083;BME280;37131;42.694;23.350;2023-05-09T11:58:05;95808.69;;;15.04;70.41
51083;BME280;37131;42.694;23.350;2023-05-09T12:00:30;95797.16;;;15.05;69.78
51083;BME280;37131;42.694;23.350;2023-05-09T12:02:56;95805.84;;;15.22;69.24
51083;BME280;37131;42.694;23.350;2023-05-09T12:05:21;95804.97;;;15.17;69.46
51083;BME280;37131;42.694;23.350;2023-05-09T12:07:47;95801.94;;;15.08;69.07
51083;BME280;37131;42.694;23.350;2023-05-09T12:10:16;95805.19;;;14.98;69.33
51083;BME280;37131;42.694;23.350;2023-05-09T12:12:46;95804.72;;;14.84;70.01
51083;BME280;37131;42.694;23.350;2023-05-09T12:15:12;95813.81;;;15.11;68.93
51083;BME280;37131;42.694;23.350;2023-05-09T12:17:38;95809.81;;;15.08;69.69
51083;BME280;37131;42.694;23.350;2023-05-09T12:20:03;95811.72;;;14.96;70.45
51083;BME280;37131;42.694;23.350;2023-05-09T12:22:30;95807.81;;;14.81;70.23
51083;BME280;37131;42.694;23.350;2023-05-09T12:24:55;95817.34;;;14.30;71.27
51083;BME280;37131;42.694;23.350;2023-05-09T12:27:21;95808.47;;;14.31;72.59
51083;BME280;37131;42.694;23.350;2023-05-09T12:29:47;95815.84;;;14.34;72.99
51083;BME280;37131;42.694;23.350;2023-05-09T12:32:15;95819.03;;;14.36;71.59
51083;BME280;37131;42.694;23.350;2023-05-09T12:34:41;95822.34;;;13.67;74.37
51083;BME280;37131;42.694;23.350;2023-05-09T12:37:15;95819.16;;;13.89;73.71
51083;BME280;37131;42.694;23.350;2023-05-09T12:39:43;95816.09;;;13.56;75.70
51083;BME280;37131;42.694;23.350;2023-05-09T12:42:12;95815.88;;;13.58;76.68
51083;BME280;37131;42.694;23.350;2023-05-09T12:44:37;95819.41;;;13.40;76.85
51083;BME280;37131;42.694;23.350;2023-05-09T12:47:03;95818.50;;;13.46;77.63
51083;BME280;37131;42.694;23.350;2023-05-09T12:49:28;95807.97;;;13.10;79.10
51083;BME280;37131;42.694;23.350;2023-05-09T12:51:54;95812.44;;;13.33;77.79
51083;BME280;37131;42.694;23.350;2023-05-09T12:54:23;95810.59;;;13.10;78.44
51083;BME280;37131;42.694;23.350;2023-05-09T12:56:50;95802.16;;;12.96;79.61
51083;BME280;37131;42.694;23.350;2023-05-09T12:59:21;95804.22;;;12.64;80.45
51083;BME280;37131;42.694;23.350;2023-05-09T13:01:59;95804.94;;;12.71;81.60
51083;BME280;37131;42.694;23.350;2023-05-09T13:04:25;95800.50;;;12.41;82.28
51083;BME280;37131;42.694;23.350;2023-05-09T13:06:51;95804.88;;;12.48;82.39